createdAt,value
2022-11-17T00:01:22.083Z,98675.47
2022-11-17T00:03:49.704Z,98668.34
2022-11-17T00:06:17.048Z,98663.13
2022-11-17T00:08:43.591Z,98658.50
2022-11-17T00:11:10.028Z,98663.38
2022-11-17T00:13:57.972Z,98656.84
2022-11-17T00:16:24.341Z,98654.13
2022-11-17T00:19:10.133Z,98655.09
2022-11-17T00:21:36.580Z,98641.84
2022-11-17T00:24:03.235Z,98646.84
2022-11-17T00:26:32.621Z,98631.31
2022-11-17T00:29:01.336Z,98632.38
2022-11-17T00:31:48.207Z,98634.03
2022-11-17T00:34:19.886Z,98623.50
2022-11-17T00:36:51.518Z,98623.50
2022-11-17T00:39:21.995Z,98622.69
2022-11-17T00:41:50.662Z,98621.84
2022-11-17T00:44:17.587Z,98625.88
2022-11-17T00:46:46.255Z,98619.00
2022-11-17T00:49:14.425Z,98615.94
2022-11-17T00:51:41.512Z,98619.13
2022-11-17T00:54:11.375Z,98619.94
2022-11-17T00:56:38.061Z,98608.47
2022-11-17T00:59:04.606Z,98601.59
2022-11-17T01:01:31.356Z,98599.59
2022-11-17T01:04:03.642Z,98602.78
2022-11-17T01:06:36.234Z,98591.06
2022-11-17T01:09:05.206Z,98573.63
2022-11-17T01:11:31.730Z,98556.00
2022-11-17T01:14:00.010Z,98551.00
2022-11-17T01:16:30.325Z,98547.47
2022-11-17T01:19:00.272Z,98546.84
2022-11-17T01:21:28.531Z,98549.94
2022-11-17T01:23:58.859Z,98542.47
2022-11-17T01:26:28.314Z,98538.69
2022-11-17T01:28:55.327Z,98532.28
2022-11-17T01:31:27.641Z,98524.69
2022-11-17T01:33:54.395Z,98521.38
2022-11-17T01:36:26.801Z,98507.88
2022-11-17T01:38:53.243Z,98507.88
2022-11-17T01:41:27.708Z,98508.22
2022-11-17T01:43:58.360Z,98496.50
2022-11-17T01:46:40.563Z,98492.34
2022-11-17T01:49:18.763Z,98493.19
2022-11-17T01:51:48.954Z,98486.44
2022-11-17T01:54:19.292Z,98490.00
2022-11-17T01:56:55.042Z,98487.88
2022-11-17T01:59:30.307Z,98481.69
2022-11-17T02:01:57.775Z,98476.97
2022-11-17T02:04:35.498Z,98468.41
2022-11-17T02:07:13.676Z,98466.19
2022-11-17T02:09:41.071Z,98453.38
2022-11-17T02:12:10.987Z,98449.81
2022-11-17T02:14:40.419Z,98442.97
2022-11-17T02:17:13.757Z,98435.00
2022-11-17T02:19:42.938Z,98437.72
2022-11-17T02:22:47.192Z,98440.22
2022-11-17T02:25:38.085Z,98436.44
2022-11-17T02:28:24.864Z,98435.63
2022-11-17T02:30:59.746Z,98428.72
2022-11-17T02:33:49.597Z,98412.28
2022-11-17T02:36:34.738Z,98421.16
2022-11-17T02:39:18.964Z,98418.19
2022-11-17T02:42:14.017Z,98412.16
2022-11-17T02:44:52.696Z,98406.13
2022-11-17T02:47:24.558Z,98398.75
2022-11-17T02:50:00.923Z,98392.84
2022-11-17T02:52:30.068Z,98396.38
2022-11-17T02:55:04.343Z,98393.41
2022-11-17T02:57:37.326Z,98401.81
2022-11-17T03:00:07.765Z,98397.56
2022-11-17T03:02:59.593Z,98402.56
2022-11-17T03:05:37.964Z,98395.09
2022-11-17T03:08:11.602Z,98407.88
2022-11-17T03:10:59.544Z,98413.06
2022-11-17T03:13:31.737Z,98397.31
2022-11-17T03:16:24.432Z,98407.38
2022-11-17T03:19:01.017Z,98374.56
2022-11-17T03:21:40.808Z,98391.03
2022-11-17T03:24:28.441Z,98402.06
2022-11-17T03:27:01.957Z,98399.22
2022-11-17T03:29:32.684Z,98410.75
2022-11-17T03:32:07.053Z,98414.53
2022-11-17T03:34:46.015Z,98419.00
2022-11-17T03:37:15.482Z,98402.56
2022-11-17T03:39:45.241Z,98388.94
2022-11-17T03:42:30.822Z,98379.44
2022-11-17T03:45:05.681Z,98374.34
2022-11-17T03:47:33.643Z,98371.41
2022-11-17T03:50:08.198Z,98376.50
2022-11-17T03:52:36.479Z,98381.13
2022-11-17T03:55:03.399Z,98386.09
2022-11-17T03:58:01.068Z,98390.59
2022-11-17T04:00:27.674Z,98390.47
2022-11-17T04:02:56.083Z,98394.50
2022-11-17T04:05:22.816Z,98390.59
2022-11-17T04:07:49.524Z,98387.25
2022-11-17T04:10:18.407Z,98383.34
2022-11-17T04:13:03.684Z,98375.16
2022-11-17T04:15:49.144Z,98380.16
2022-11-17T04:18:15.885Z,98376.31
2022-11-17T04:20:45.374Z,98376.94
2022-11-17T04:23:14.200Z,98378.94
2022-11-17T04:26:01.819Z,98371.34
2022-11-17T04:28:41.515Z,98391.34
2022-11-17T04:31:14.179Z,98383.88
2022-11-17T04:33:42.978Z,98388.13
2022-11-17T04:36:13.208Z,98386.00
2022-11-17T04:38:44.395Z,98387.28
2022-11-17T04:41:31.545Z,98370.13
2022-11-17T04:43:58.495Z,98378.28
2022-11-17T04:46:25.704Z,98386.81
2022-11-17T04:48:55.046Z,98378.28
2022-11-17T04:51:27.504Z,98378.53
2022-11-17T04:53:54.456Z,98374.84
2022-11-17T04:56:22.073Z,98378.03
2022-11-17T04:58:54.128Z,98378.41
2022-11-17T05:01:22.302Z,98383.72
2022-11-17T05:03:55.846Z,98372.00
2022-11-17T05:06:26.653Z,98373.91
2022-11-17T05:08:57.988Z,98370.94
2022-11-17T05:11:45.778Z,98359.81
2022-11-17T05:14:17.781Z,98361.84
2022-11-17T05:17:09.051Z,98363.97
2022-11-17T05:19:46.512Z,98369.88
2022-11-17T05:22:36.978Z,98360.19
2022-11-17T05:25:04.814Z,98359.97
2022-11-17T05:27:31.662Z,98348.34
2022-11-17T05:30:00.458Z,98358.78
2022-11-17T05:32:26.937Z,98349.53
2022-11-17T05:34:53.429Z,98342.47
2022-11-17T05:37:19.983Z,98344.72
2022-11-17T05:39:46.483Z,98347.06
2022-11-17T05:42:12.891Z,98351.31
2022-11-17T05:44:41.691Z,98347.06
2022-11-17T05:47:08.136Z,98350.38
2022-11-17T05:49:37.082Z,98356.75
2022-11-17T05:52:03.545Z,98363.75
2022-11-17T05:54:30.084Z,98361.50
2022-11-17T05:57:04.126Z,98366.09
2022-11-17T05:59:46.363Z,98361.50
2022-11-17T06:02:18.672Z,98359.25
2022-11-17T06:04:46.276Z,98355.94
2022-11-17T06:07:12.878Z,98347.53
2022-11-17T06:09:41.870Z,98326.72
2022-11-17T06:12:08.625Z,98339.38
2022-11-17T06:14:35.658Z,98335.59
2022-11-17T06:17:07.725Z,98344.38
2022-11-17T06:19:40.691Z,98355.69
2022-11-17T06:22:12.638Z,98358.06
2022-11-17T06:24:44.964Z,98348.00
2022-11-17T06:27:18.734Z,98368.25
2022-11-17T06:29:46.883Z,98372.78
2022-11-17T06:32:14.915Z,98373.22
2022-11-17T06:34:43.297Z,98384.94
2022-11-17T06:37:11.897Z,98375.50
2022-11-17T06:39:40.590Z,98376.94
2022-11-17T06:42:06.977Z,98382.16
2022-11-17T06:44:33.509Z,98382.28
2022-11-17T06:47:02.958Z,98380.88
2022-11-17T06:49:34.168Z,98376.94
2022-11-17T06:52:00.534Z,98377.63
2022-11-17T06:54:26.957Z,98379.88
2022-11-17T06:56:56.142Z,98384.06
2022-11-17T06:59:22.626Z,98373.53
2022-11-17T07:01:49.023Z,98376.34
2022-11-17T07:04:15.676Z,98373.88
2022-11-17T07:06:42.038Z,98368.09
2022-11-17T07:09:08.432Z,98376.72
2022-11-17T07:11:36.244Z,98367.25
2022-11-17T07:14:07.706Z,98372.22
2022-11-17T07:16:36.501Z,98377.69
2022-11-17T07:19:03.774Z,98380.88
2022-11-17T07:21:32.910Z,98378.75
2022-11-17T07:23:59.352Z,98380.03
2022-11-17T07:26:25.776Z,98370.56
2022-11-17T07:28:52.138Z,98375.09
2022-11-17T07:31:18.623Z,98386.91
2022-11-17T07:33:45.251Z,98380.75
2022-11-17T07:36:14.479Z,98375.44
2022-11-17T07:38:43.618Z,98383.00
2022-11-17T07:41:14.043Z,98380.63
2022-11-17T07:43:40.589Z,98380.16
2022-11-17T07:46:12.372Z,98390.56
2022-11-17T07:48:43.064Z,98383.00
2022-11-17T07:51:09.886Z,98387.63
2022-11-17T07:53:38.654Z,98384.41
2022-11-17T07:56:07.647Z,98384.66
2022-11-17T07:58:34.810Z,98388.19
2022-11-17T08:01:27.904Z,98393.41
2022-11-17T08:03:54.455Z,98399.69
2022-11-17T08:06:21.116Z,98400.63
2022-11-17T08:08:49.595Z,98405.25
2022-11-17T08:11:16.194Z,98395.84
2022-11-17T08:13:42.649Z,98404.50
2022-11-17T08:16:10.381Z,98407.34
2022-11-17T08:18:40.311Z,98411.00
2022-11-17T08:21:08.324Z,98406.22
2022-11-17T08:23:35.500Z,98398.50
2022-11-17T08:26:03.606Z,98404.31
2022-11-17T08:28:30.598Z,98400.03
2022-11-17T08:31:03.087Z,98399.78
2022-11-17T08:33:29.619Z,98391.69
2022-11-17T08:36:01.005Z,98397.97
2022-11-17T08:38:29.172Z,98393.94
2022-11-17T08:41:01.719Z,98395.84
2022-11-17T08:43:28.278Z,98393.94
2022-11-17T08:45:54.764Z,98394.03
2022-11-17T08:48:21.801Z,98392.13
2022-11-17T08:50:49.311Z,98394.63
2022-11-17T08:53:18.900Z,98401.72
2022-11-17T08:55:45.523Z,98394.97
2022-11-17T08:58:12.368Z,98404.78
2022-11-17T09:00:40.314Z,98411.91
2022-11-17T09:03:10.890Z,98412.25
2022-11-17T09:05:40.080Z,98414.53
2022-11-17T09:08:43.423Z,98423.31
2022-11-17T09:10:57.481Z,98420.00
2022-11-17T09:13:27.048Z,98428.78
2022-11-17T09:15:53.480Z,98430.44
2022-11-17T09:18:19.847Z,98440.00
2022-11-17T09:20:46.491Z,98435.78
2022-11-17T09:23:13.166Z,98432.97
2022-11-17T09:25:42.027Z,98438.88
2022-11-17T09:28:08.583Z,98440.13
2022-11-17T09:30:36.243Z,98441.97
2022-11-17T09:33:07.528Z,98455.69
2022-11-17T09:35:34.073Z,98449.06
2022-11-17T09:38:03.460Z,98453.72
2022-11-17T09:40:36.305Z,98446.28
2022-11-17T09:43:11.134Z,98453.38
2022-11-17T09:45:39.177Z,98458.59
2022-11-17T09:48:40.289Z,98473.72
2022-11-17T09:51:10.698Z,98483.31
2022-11-17T09:53:50.991Z,98483.78
2022-11-17T09:56:17.593Z,98486.69
2022-11-17T09:58:50.377Z,98472.22
2022-11-17T10:01:19.082Z,98485.16
2022-11-17T10:03:48.563Z,98473.66
2022-11-17T10:06:19.548Z,98490.41
2022-11-17T10:09:01.279Z,98477.13
2022-11-17T10:11:33.872Z,98487.63
2022-11-17T10:14:12.412Z,98480.63
2022-11-17T10:16:42.161Z,98487.28
2022-11-17T10:19:22.210Z,98489.53
2022-11-17T10:22:08.864Z,98476.25
2022-11-17T10:24:50.852Z,98486.22
2022-11-17T10:27:17.258Z,98483.59
2022-11-17T10:30:03.582Z,98491.91
2022-11-17T10:32:36.609Z,98475.91
2022-11-17T10:35:19.593Z,98499.97
2022-11-17T10:38:08.690Z,98492.72
2022-11-17T10:40:41.054Z,98488.56
2022-11-17T10:43:13.568Z,98495.34
2022-11-17T10:45:45.346Z,98485.16
2022-11-17T10:48:35.580Z,98487.50
2022-11-17T10:51:10.457Z,98481.84
2022-11-17T10:53:46.807Z,98477.31
2022-11-17T10:56:24.863Z,98489.66
2022-11-17T10:59:02.592Z,98492.81
2022-11-17T11:01:30.800Z,98482.00
2022-11-17T11:03:57.380Z,98487.66
2022-11-17T11:06:32.101Z,98489.69
2022-11-17T11:09:01.903Z,98496.00
2022-11-17T11:11:48.310Z,98502.31
2022-11-17T11:14:18.134Z,98486.91
2022-11-17T11:16:51.805Z,98493.03
2022-11-17T11:19:19.949Z,98487.38
2022-11-17T11:22:01.398Z,98487.06
2022-11-17T11:24:50.986Z,98486.44
2022-11-17T11:27:48.250Z,98487.78
2022-11-17T11:30:19.356Z,98484.22
2022-11-17T11:32:54.677Z,98480.50
2022-11-17T11:35:23.856Z,98478.25
2022-11-17T11:37:59.334Z,98481.84
2022-11-17T11:40:35.008Z,98487.44
2022-11-17T11:43:25.734Z,98482.56
2022-11-17T11:46:07.360Z,98486.00
2022-11-17T11:48:36.822Z,98483.63
2022-11-17T11:51:19.179Z,98483.38
2022-11-17T11:53:52.546Z,98492.81
2022-11-17T11:56:27.580Z,98479.19
2022-11-17T11:58:59.092Z,98485.75
2022-11-17T12:01:28.940Z,98480.47
2022-11-17T12:04:40.875Z,98484.75
2022-11-17T12:07:28.792Z,98488.69
2022-11-17T12:10:36.496Z,98489.75
2022-11-17T12:13:04.127Z,98489.66
2022-11-17T12:15:36.969Z,98491.66
2022-11-17T12:18:17.330Z,98500.13
2022-11-17T12:20:56.431Z,98506.88
2022-11-17T12:23:47.739Z,98491.44
2022-11-17T12:26:25.468Z,98503.22
2022-11-17T12:29:20.563Z,98499.84
2022-11-17T12:31:51.680Z,98513.63
2022-11-17T12:34:36.831Z,98504.16
2022-11-17T12:37:13.133Z,98498.75
2022-11-17T12:39:54.904Z,98485.78
2022-11-17T12:42:21.349Z,98483.53
2022-11-17T12:44:50.123Z,98493.66
2022-11-17T12:47:42.086Z,98502.09
2022-11-17T12:50:08.733Z,98502.19
2022-11-17T12:53:20.371Z,98505.25
2022-11-17T12:56:14.695Z,98508.81
2022-11-17T12:58:59.564Z,98506.00
2022-11-17T13:01:38.301Z,98493.50
2022-11-17T13:04:12.093Z,98489.09
2022-11-17T13:06:38.817Z,98492.34
2022-11-17T13:09:12.072Z,98505.41
2022-11-17T13:11:41.603Z,98487.34
2022-11-17T13:14:16.592Z,98499.94
2022-11-17T13:16:49.463Z,98513.63
2022-11-17T13:19:30.043Z,98518.25
2022-11-17T13:22:05.726Z,98519.75
2022-11-17T13:24:42.364Z,98527.63
2022-11-17T13:27:28.931Z,98524.78
2022-11-17T13:30:27.744Z,98525.78
2022-11-17T13:32:55.802Z,98529.19
2022-11-17T13:35:23.827Z,98523.13
2022-11-17T13:38:02.672Z,98517.50
2022-11-17T13:40:33.867Z,98531.50
2022-11-17T13:43:03.109Z,98528.94
2022-11-17T13:45:29.774Z,98531.00
2022-11-17T13:48:01.804Z,98530.66
2022-11-17T13:50:33.486Z,98559.53
2022-11-17T13:53:13.727Z,98578.38
2022-11-17T13:55:46.978Z,98574.97
2022-11-17T13:58:38.571Z,98588.88
2022-11-17T14:01:05.158Z,98561.34
2022-11-17T14:03:33.246Z,98567.44
2022-11-17T14:05:59.717Z,98546.81
2022-11-17T14:08:32.066Z,98541.94
2022-11-17T14:11:15.643Z,98534.94
2022-11-17T14:13:59.096Z,98534.22
2022-11-17T14:16:27.401Z,98538.97
2022-11-17T14:19:16.781Z,98547.50
2022-11-17T14:22:01.553Z,98572.38
2022-11-17T14:24:28.587Z,98584.69
2022-11-17T14:27:00.126Z,98593.22
2022-11-17T14:29:30.206Z,98576.50
2022-11-17T14:31:57.321Z,98569.16
2022-11-17T14:34:26.423Z,98578.25
2022-11-17T14:36:57.270Z,98585.84
2022-11-17T14:39:23.712Z,98587.97
2022-11-17T14:41:51.058Z,98585.94
2022-11-17T14:44:17.538Z,98568.75
2022-11-17T14:46:46.383Z,98570.66
2022-11-17T14:49:13.264Z,98557.72
2022-11-17T14:51:40.067Z,98549.53
2022-11-17T14:54:06.715Z,98541.69
2022-11-17T14:56:34.633Z,98534.16
2022-11-17T14:59:01.204Z,98536.75
2022-11-17T15:01:30.963Z,98544.09
2022-11-17T15:03:59.992Z,98550.75
2022-11-17T15:06:27.166Z,98540.09
2022-11-17T15:09:01.366Z,98544.97
2022-11-17T15:11:33.922Z,98546.63
2022-11-17T15:14:05.604Z,98537.16
2022-11-17T15:16:32.705Z,98533.94
2022-11-17T15:18:59.858Z,98521.16
2022-11-17T15:21:26.291Z,98524.50
2022-11-17T15:23:57.540Z,98522.13
2022-11-17T15:26:23.976Z,98518.66
2022-11-17T15:28:52.727Z,98514.75
2022-11-17T15:31:20.162Z,98509.91
2022-11-17T15:33:47.949Z,98513.94
2022-11-17T15:36:19.533Z,98503.63
2022-11-17T15:38:47.767Z,98495.69
2022-11-17T15:41:15.193Z,98500.41
2022-11-17T15:43:43.396Z,98491.53
2022-11-17T15:46:14.914Z,98497.09
2022-11-17T15:48:43.456Z,98496.72
2022-11-17T15:51:20.680Z,98492.22
2022-11-17T15:53:48.519Z,98516.75
2022-11-17T15:56:20.870Z,98528.31
2022-11-17T15:58:48.641Z,98518.13
2022-11-17T16:01:25.120Z,98555.47
2022-11-17T16:03:53.141Z,98594.53
2022-11-17T16:06:19.671Z,98593.00
2022-11-17T16:08:46.052Z,98561.38
2022-11-17T16:11:12.596Z,98573.31
2022-11-17T16:13:38.962Z,98584.22
2022-11-17T16:16:12.294Z,98561.47
2022-11-17T16:18:39.219Z,98551.50
2022-11-17T16:21:08.420Z,98552.44
2022-11-17T16:23:43.293Z,98553.94
2022-11-17T16:26:13.536Z,98558.75
2022-11-17T16:28:40.307Z,98569.63
2022-11-17T16:31:15.280Z,98570.47
2022-11-17T16:33:50.435Z,98564.66
2022-11-17T16:36:18.208Z,98568.22
2022-11-17T16:38:59.841Z,98571.78
2022-11-17T16:41:37.953Z,98576.84
2022-11-17T16:44:11.764Z,98577.44
2022-11-17T16:46:40.827Z,98555.06
2022-11-17T16:49:12.941Z,98542.97
2022-11-17T16:51:39.834Z,98560.50
2022-11-17T16:54:11.381Z,98558.41
2022-11-17T16:56:37.958Z,98552.78
2022-11-17T16:59:04.485Z,98555.66
2022-11-17T17:01:33.115Z,98552.19
2022-11-17T17:04:01.895Z,98546.88
2022-11-17T17:06:29.306Z,98538.94
2022-11-17T17:09:02.984Z,98537.66
2022-11-17T17:11:31.777Z,98543.22
2022-11-17T17:14:03.089Z,98539.03
2022-11-17T17:16:31.242Z,98544.47
2022-11-17T17:18:59.993Z,98549.25
2022-11-17T17:21:27.926Z,98551.41
2022-11-17T17:23:54.816Z,98551.03
2022-11-17T17:26:23.034Z,98551.22
2022-11-17T17:28:51.748Z,98537.97
2022-11-17T17:31:21.888Z,98545.78
2022-11-17T17:33:52.547Z,98565.00
2022-11-17T17:36:24.412Z,98571.56
2022-11-17T17:38:55.814Z,98568.47
2022-11-17T17:41:24.960Z,98563.81
2022-11-17T17:43:57.395Z,98566.31
2022-11-17T17:46:24.373Z,98576.38
2022-11-17T17:48:55.620Z,98561.56
2022-11-17T17:51:29.080Z,98569.97
2022-11-17T17:53:58.230Z,98565.50
2022-11-17T17:56:25.255Z,98563.44
2022-11-17T17:58:55.220Z,98560.66
2022-11-17T18:01:29.671Z,98578.47
2022-11-17T18:04:04.715Z,98580.78
2022-11-17T18:06:42.541Z,98572.59
2022-11-17T18:09:10.792Z,98565.03
2022-11-17T18:11:37.319Z,98566.91
2022-11-17T18:14:04.004Z,98565.88
2022-11-17T18:16:33.026Z,98572.38
2022-11-17T18:19:04.905Z,98570.88
2022-11-17T18:21:31.927Z,98580.94
2022-11-17T18:24:00.831Z,98575.06
2022-11-17T18:26:33.010Z,98565.69
2022-11-17T18:29:01.977Z,98567.94
2022-11-17T18:31:32.444Z,98578.22
2022-11-17T18:34:13.665Z,98579.03
2022-11-17T18:36:40.234Z,98581.78
2022-11-17T18:39:06.674Z,98584.28
2022-11-17T18:41:34.067Z,98580.94
2022-11-17T18:44:01.367Z,98586.81
2022-11-17T18:46:30.743Z,98592.25
2022-11-17T18:48:57.950Z,98603.41
2022-11-17T18:51:27.106Z,98583.03
2022-11-17T18:53:57.977Z,98589.72
2022-11-17T18:56:31.373Z,98573.00
2022-11-17T18:58:57.835Z,98584.75
2022-11-17T19:01:27.763Z,98580.53
2022-11-17T19:04:00.218Z,98573.75
2022-11-17T19:06:26.809Z,98573.38
2022-11-17T19:08:54.026Z,98575.91
2022-11-17T19:11:22.308Z,98574.88
2022-11-17T19:13:49.038Z,98575.91
2022-11-17T19:16:23.705Z,98583.13
2022-11-17T19:18:52.693Z,98579.41
2022-11-17T19:21:30.910Z,98583.81
2022-11-17T19:23:59.452Z,98583.75
2022-11-17T19:26:33.909Z,98577.78
2022-11-17T19:29:02.977Z,98573.53
2022-11-17T19:31:32.064Z,98580.50
2022-11-17T19:33:59.370Z,98585.81
2022-11-17T19:36:31.348Z,98586.09
2022-11-17T19:38:59.405Z,98583.84
2022-11-17T19:41:30.996Z,98596.25
2022-11-17T19:44:00.466Z,98604.69
2022-11-17T19:46:28.141Z,98597.13
2022-11-17T19:48:58.363Z,98597.97
2022-11-17T19:51:27.521Z,98601.81
2022-11-17T19:53:56.232Z,98606.59
2022-11-17T19:56:24.381Z,98607.63
2022-11-17T19:58:51.923Z,98616.63
2022-11-17T20:01:26.482Z,98616.78
2022-11-17T20:03:56.220Z,98614.28
2022-11-17T20:06:27.365Z,98619.13
2022-11-17T20:08:55.409Z,98616.16
2022-11-17T20:11:24.195Z,98613.44
2022-11-17T20:13:50.875Z,98609.47
2022-11-17T20:16:19.752Z,98611.81
2022-11-17T20:18:50.893Z,98616.53
2022-11-17T20:21:18.253Z,98624.03
2022-11-17T20:23:45.441Z,98621.66
2022-11-17T20:26:25.353Z,98632.53
2022-11-17T20:28:52.655Z,98635.94
2022-11-17T20:31:24.682Z,98631.69
2022-11-17T20:33:52.503Z,98635.09
2022-11-17T20:36:21.435Z,98634.47
2022-11-17T20:38:51.959Z,98636.44
2022-11-17T20:41:20.865Z,98645.88
2022-11-17T20:43:51.853Z,98645.97
2022-11-17T20:46:18.934Z,98649.13
2022-11-17T20:48:45.819Z,98652.44
2022-11-17T20:51:14.860Z,98658.56
2022-11-17T20:53:41.276Z,98657.13
2022-11-17T20:56:09.985Z,98655.00
2022-11-17T20:58:37.049Z,98652.66
2022-11-17T21:01:11.174Z,98657.22
2022-11-17T21:03:38.230Z,98651.53
2022-11-17T21:06:05.334Z,98657.59
2022-11-17T21:08:34.606Z,98655.47
2022-11-17T21:11:03.621Z,98656.09
2022-11-17T21:13:32.434Z,98667.56
2022-11-17T21:16:02.017Z,98664.47
2022-11-17T21:18:30.787Z,98668.66
2022-11-17T21:21:04.804Z,98665.94
2022-11-17T21:23:31.449Z,98664.03
2022-11-17T21:25:57.925Z,98675.75
2022-11-17T21:28:24.557Z,98673.84
2022-11-17T21:30:53.472Z,98680.97
2022-11-17T21:33:19.967Z,98683.44
2022-11-17T21:35:48.857Z,98693.75
2022-11-17T21:38:15.350Z,98688.28
2022-11-17T21:40:41.774Z,98689.78
2022-11-17T21:43:08.203Z,98688.41
2022-11-17T21:45:34.678Z,98689.97
2022-11-17T21:48:01.231Z,98692.16
2022-11-17T21:50:27.744Z,98705.41
2022-11-17T21:52:54.333Z,98704.47
2022-11-17T21:55:21.001Z,98708.88
2022-11-17T21:57:50.505Z,98707.72
2022-11-17T22:00:17.974Z,98708.56
2022-11-17T22:02:44.463Z,98704.47
2022-11-17T22:05:13.553Z,98705.94
2022-11-17T22:07:39.987Z,98704.91
2022-11-17T22:10:07.152Z,98702.44
2022-11-17T22:12:33.746Z,98694.69
2022-11-17T22:15:04.214Z,98695.13
2022-11-17T22:17:33.722Z,98698.53
2022-11-17T22:20:00.225Z,98704.59
2022-11-17T22:22:26.713Z,98704.41
2022-11-17T22:24:53.193Z,98707.97
2022-11-17T22:27:22.139Z,98708.41
2022-11-17T22:29:48.589Z,98715.50
2022-11-17T22:32:14.976Z,98709.44
2022-11-17T22:34:41.457Z,98707.16
2022-11-17T22:37:07.888Z,98720.50
2022-11-17T22:39:34.290Z,98725.97
2022-11-17T22:42:00.843Z,98714.66
2022-11-17T22:44:32.316Z,98715.72
2022-11-17T22:46:58.831Z,98707.56
2022-11-17T22:49:25.222Z,98709.25
2022-11-17T22:52:03.914Z,98706.56
2022-11-17T22:54:33.308Z,98716.31
2022-11-17T22:57:00.221Z,98707.38
2022-11-17T22:59:28.557Z,98704.50
2022-11-17T23:01:55.524Z,98710.13
2022-11-17T23:04:23.060Z,98710.34
2022-11-17T23:06:49.552Z,98710.75
2022-11-17T23:09:18.691Z,98712.19
2022-11-17T23:11:50.027Z,98721.63
2022-11-17T23:14:16.625Z,98722.41
2022-11-17T23:16:43.071Z,98718.63
2022-11-17T23:19:15.860Z,98726.16
2022-11-17T23:21:42.782Z,98723.03
2022-11-17T23:24:14.371Z,98713.84
2022-11-17T23:26:41.951Z,98727.38
2022-11-17T23:29:09.303Z,98718.22
2022-11-17T23:31:35.853Z,98723.84
2022-11-17T23:34:02.358Z,98724.66
2022-11-17T23:36:28.877Z,98712.75
2022-11-17T23:38:57.740Z,98712.31
2022-11-17T23:41:26.628Z,98719.66
2022-11-17T23:43:54.401Z,98726.56
2022-11-17T23:46:26.037Z,98723.84
2022-11-17T23:48:53.776Z,98718.00
2022-11-17T23:51:22.954Z,98724.66
2022-11-17T23:53:50.183Z,98714.19
2022-11-17T23:56:17.208Z,98709.00
2022-11-17T23:58:44.161Z,98717.16
